Boston, Massachusetts
Traffic Map
Current Weather Conditions
Boston, Massachusetts
Broken Clouds
Broken Clouds
70°
Feels Like: 70°
Wind Chill: 70° Ceiling: 16000
Heat Index: 70° Visibility: 10mi
Dew Point: 63° Wind: 13mph
Humidity: 78% Direction: 190° (S)
Pressure: 30.01in Gusts: 0mph
Raw Report DataKBOS 280554Z 19011KT 10SM SCT070 BKN160 21/17 A3001 RMK AO2 SLP161 T02110172 10233 20206 58006
Traffic Incident Summary
Active as of:
Severity:
Category:
InformationThere was an issue retrieving the traffic information for this location. Please try a different location or try again shortly.
Advertisements
Track Severe Weather on mobile